createdAt,value
2023-06-26T00:00:45.329Z,74.98
2023-06-26T00:01:45.355Z,74.88
2023-06-26T00:02:45.305Z,74.77
2023-06-26T00:03:45.297Z,74.88
2023-06-26T00:04:45.249Z,75.18
2023-06-26T00:05:45.224Z,75.08
2023-06-26T00:06:45.294Z,75.58
2023-06-26T00:07:45.181Z,75.27
2023-06-26T00:08:45.177Z,75.08
2023-06-26T00:09:45.136Z,75.38
2023-06-26T00:10:45.113Z,75.38
2023-06-26T00:11:45.095Z,76.28
2023-06-26T00:12:45.077Z,75.98
2023-06-26T00:13:45.047Z,76.38
2023-06-26T00:14:45.050Z,76.62
2023-06-26T00:15:45.006Z,76.62
2023-06-26T00:16:44.999Z,76.42
2023-06-26T00:17:44.996Z,76.02
2023-06-26T00:18:44.958Z,76.52
2023-06-26T00:19:44.921Z,75.62
2023-06-26T00:20:44.958Z,76.72
2023-06-26T00:21:44.883Z,76.92
2023-06-26T00:22:44.855Z,76.32
2023-06-26T00:23:44.833Z,76.52
2023-06-26T00:24:44.817Z,76.82
2023-06-26T00:25:44.791Z,77.22
2023-06-26T00:26:44.770Z,76.21
2023-06-26T00:27:44.753Z,76.62
2023-06-26T00:28:44.728Z,76.62
2023-06-26T00:29:44.707Z,76.32
2023-06-26T00:30:44.703Z,77.42
2023-06-26T00:31:44.725Z,77.42
2023-06-26T00:32:44.724Z,78.22
2023-06-26T00:33:44.626Z,77.76
2023-06-26T00:34:44.612Z,78.33
2023-06-26T00:35:44.583Z,78.27
2023-06-26T00:36:44.608Z,77.83
2023-06-26T00:37:44.537Z,77.86
2023-06-26T00:38:44.515Z,77.76
2023-06-26T00:39:44.493Z,78.77
2023-06-26T00:40:44.473Z,78.97
2023-06-26T00:41:44.455Z,78.86
2023-06-26T00:42:44.448Z,78.97
2023-06-26T00:43:44.408Z,78.66
2023-06-26T00:44:44.388Z,77.96
2023-06-26T00:45:44.360Z,79.50
2023-06-26T00:46:44.364Z,79.50
2023-06-26T00:47:44.350Z,79.61
2023-06-26T00:48:46.100Z,79.81
2023-06-26T00:49:44.277Z,79.21
2023-06-26T00:50:44.284Z,79.30
2023-06-26T00:51:44.235Z,79.81
2023-06-26T00:52:44.211Z,80.15
2023-06-26T00:53:44.207Z,79.91
2023-06-26T00:54:44.169Z,80.21
2023-06-26T00:55:44.147Z,79.94
2023-06-26T00:56:44.131Z,80.21
2023-06-26T00:57:44.107Z,80.55
2023-06-26T00:58:44.083Z,79.54
2023-06-26T00:59:44.063Z,79.71
2023-06-26T01:00:44.039Z,79.74
2023-06-26T01:01:44.018Z,79.74
2023-06-26T01:02:44.047Z,79.85
2023-06-26T01:03:43.970Z,79.85
2023-06-26T01:04:43.950Z,79.85
2023-06-26T01:05:43.924Z,79.74
2023-06-26T01:06:44.011Z,80.05
2023-06-26T01:07:43.881Z,79.94
2023-06-26T01:08:43.864Z,79.85
2023-06-26T01:09:43.838Z,79.85
2023-06-26T01:10:43.821Z,80.05
2023-06-26T01:11:43.792Z,79.94
2023-06-26T01:12:43.770Z,80.25
2023-06-26T01:13:43.747Z,80.49
2023-06-26T01:14:43.734Z,80.19
2023-06-26T01:15:43.703Z,80.49
2023-06-26T01:16:43.684Z,80.39
2023-06-26T01:17:43.683Z,79.88
2023-06-26T01:18:43.671Z,80.29
2023-06-26T01:19:43.624Z,80.19
2023-06-26T01:20:43.596Z,80.32
2023-06-26T01:21:43.573Z,80.12
2023-06-26T01:22:43.550Z,80.43
2023-06-26T01:23:43.526Z,80.22
2023-06-26T01:24:43.506Z,80.63
2023-06-26T01:25:44.408Z,80.12
2023-06-26T01:26:43.459Z,79.82
2023-06-26T01:27:43.452Z,80.43
2023-06-26T01:28:43.426Z,79.82
2023-06-26T01:29:43.393Z,79.62
2023-06-26T01:30:43.388Z,80.22
2023-06-26T01:31:43.378Z,79.82
2023-06-26T01:32:43.345Z,79.82
2023-06-26T01:33:43.302Z,79.42
2023-06-26T01:34:43.305Z,79.72
2023-06-26T01:35:43.264Z,79.62
2023-06-26T01:36:43.252Z,79.62
2023-06-26T01:37:43.225Z,79.32
2023-06-26T01:38:43.225Z,79.92
2023-06-26T01:39:43.181Z,79.22
2023-06-26T01:40:43.151Z,79.42
2023-06-26T01:41:43.134Z,78.21
2023-06-26T01:42:43.110Z,79.02
2023-06-26T01:43:43.090Z,79.72
2023-06-26T01:44:43.074Z,78.61
2023-06-26T01:45:43.060Z,79.22
2023-06-26T01:46:43.044Z,79.62
2023-06-26T01:47:43.002Z,79.11
2023-06-26T01:48:42.982Z,78.31
2023-06-26T01:49:42.960Z,78.81
2023-06-26T01:50:42.969Z,78.61
2023-06-26T01:51:42.908Z,78.71
2023-06-26T01:52:42.891Z,78.31
2023-06-26T01:53:42.863Z,78.01
2023-06-26T01:54:42.842Z,78.61
2023-06-26T01:55:42.835Z,78.71
2023-06-26T01:56:42.801Z,78.91
2023-06-26T01:57:42.781Z,79.02
2023-06-26T01:58:42.766Z,78.81
2023-06-26T01:59:42.738Z,79.22
2023-06-26T02:00:42.711Z,78.91
2023-06-26T02:01:42.700Z,78.61
2023-06-26T02:02:42.746Z,78.91
2023-06-26T02:03:42.701Z,78.21
2023-06-26T02:04:42.628Z,78.41
2023-06-26T02:05:42.599Z,78.21
2023-06-26T02:06:42.623Z,77.50
2023-06-26T02:07:42.567Z,78.31
2023-06-26T02:08:42.531Z,78.61
2023-06-26T02:09:42.513Z,78.41
2023-06-26T02:10:42.623Z,77.81
2023-06-26T02:11:42.461Z,78.61
2023-06-26T02:12:42.442Z,78.21
2023-06-26T02:13:42.417Z,77.81
2023-06-26T02:14:42.396Z,77.91
2023-06-26T02:15:42.373Z,77.91
2023-06-26T02:16:42.351Z,78.11
2023-06-26T02:17:42.360Z,78.51
2023-06-26T02:18:42.305Z,78.31
2023-06-26T02:19:42.280Z,78.51
2023-06-26T02:20:42.262Z,78.21
2023-06-26T02:21:42.239Z,78.45
2023-06-26T02:22:42.255Z,79.02
2023-06-26T02:23:42.272Z,78.51
2023-06-26T02:24:42.174Z,78.61
2023-06-26T02:25:42.146Z,79.22
2023-06-26T02:26:42.127Z,79.02
2023-06-26T02:27:42.101Z,78.96
2023-06-26T02:28:42.084Z,78.81
2023-06-26T02:29:42.066Z,79.02
2023-06-26T02:30:42.252Z,79.02
2023-06-26T02:31:42.022Z,78.75
2023-06-26T02:32:42.003Z,78.96
2023-06-26T02:33:41.968Z,78.71
2023-06-26T02:34:41.948Z,78.91
2023-06-26T02:35:41.926Z,78.81
2023-06-26T02:36:41.905Z,78.55
2023-06-26T02:37:41.878Z,78.71
2023-06-26T02:38:41.875Z,78.35
2023-06-26T02:39:41.834Z,78.81
2023-06-26T02:40:42.020Z,79.02
2023-06-26T02:41:41.788Z,79.02
2023-06-26T02:42:41.782Z,79.46
2023-06-26T02:43:41.744Z,79.16
2023-06-26T02:44:41.726Z,78.91
2023-06-26T02:45:41.700Z,79.66
2023-06-26T02:46:41.709Z,79.36
2023-06-26T02:47:41.729Z,79.76
2023-06-26T02:48:41.633Z,79.76
2023-06-26T02:49:41.612Z,79.76
2023-06-26T02:50:41.878Z,79.66
2023-06-26T02:51:41.565Z,80.06
2023-06-26T02:52:41.539Z,80.06
2023-06-26T02:53:41.523Z,79.86
2023-06-26T02:54:41.515Z,79.66
2023-06-26T02:55:41.484Z,79.86
2023-06-26T02:56:47.281Z,80.46
2023-06-26T02:57:41.428Z,80.16
2023-06-26T02:58:41.422Z,79.86
2023-06-26T02:59:41.391Z,80.46
2023-06-26T03:00:41.580Z,80.57
2023-06-26T03:01:41.389Z,80.36
2023-06-26T03:02:41.336Z,80.26
2023-06-26T03:03:41.324Z,80.46
2023-06-26T03:04:41.277Z,81.07
2023-06-26T03:05:41.252Z,80.46
2023-06-26T03:06:41.226Z,81.67
2023-06-26T03:07:41.207Z,80.26
2023-06-26T03:08:41.186Z,80.87
2023-06-26T03:09:41.159Z,80.46
2023-06-26T03:10:41.407Z,80.70
2023-06-26T03:11:41.115Z,80.70
2023-06-26T03:12:41.103Z,81.10
2023-06-26T03:13:41.069Z,81.71
2023-06-26T03:14:41.058Z,81.61
2023-06-26T03:15:41.032Z,81.41
2023-06-26T03:16:41.025Z,81.61
2023-06-26T03:17:41.022Z,81.41
2023-06-26T03:18:40.979Z,81.51
2023-06-26T03:19:40.934Z,81.67
2023-06-26T03:20:41.005Z,81.41
2023-06-26T03:21:40.893Z,81.41
2023-06-26T03:22:40.883Z,81.30
2023-06-26T03:23:40.852Z,81.51
2023-06-26T03:24:40.831Z,81.51
2023-06-26T03:25:40.815Z,81.71
2023-06-26T03:26:40.835Z,81.71
2023-06-26T03:27:40.762Z,81.91
2023-06-26T03:28:40.735Z,81.91
2023-06-26T03:29:40.717Z,82.01
2023-06-26T03:30:41.128Z,82.11
2023-06-26T03:31:40.668Z,81.57
2023-06-26T03:32:40.706Z,81.71
2023-06-26T03:33:40.629Z,81.37
2023-06-26T03:34:40.614Z,81.67
2023-06-26T03:35:40.577Z,81.17
2023-06-26T03:36:40.553Z,81.47
2023-06-26T03:37:40.540Z,81.27
2023-06-26T03:38:40.510Z,81.98
2023-06-26T03:39:40.490Z,82.58
2023-06-26T03:40:40.918Z,82.48
2023-06-26T03:41:40.441Z,82.98
2023-06-26T03:42:40.451Z,83.08
2023-06-26T03:43:40.408Z,82.98
2023-06-26T03:44:40.469Z,83.72
2023-06-26T03:45:40.457Z,82.92
2023-06-26T03:46:40.477Z,83.22
2023-06-26T03:47:40.378Z,83.22
2023-06-26T03:48:40.282Z,83.93
2023-06-26T03:49:40.262Z,83.72
2023-06-26T03:50:40.574Z,83.93
2023-06-26T03:51:40.227Z,83.72
2023-06-26T03:52:40.192Z,84.19
2023-06-26T03:53:40.173Z,83.42
2023-06-26T03:54:40.155Z,83.22
2023-06-26T03:55:40.390Z,83.99
2023-06-26T03:56:40.111Z,84.39
2023-06-26T03:57:40.085Z,84.49
2023-06-26T03:58:40.084Z,84.39
2023-06-26T03:59:40.034Z,84.39
2023-06-26T04:00:40.010Z,84.69
2023-06-26T04:01:40.019Z,84.49
2023-06-26T04:02:40.000Z,85.20
2023-06-26T04:03:40.009Z,85.60
2023-06-26T04:04:39.923Z,85.60
2023-06-26T04:05:40.062Z,85.40
2023-06-26T04:06:39.873Z,85.70
2023-06-26T04:07:39.863Z,86.00
2023-06-26T04:08:39.839Z,85.40
2023-06-26T04:09:39.815Z,86.10
2023-06-26T04:10:39.785Z,85.90
2023-06-26T04:11:39.769Z,85.70
2023-06-26T04:12:39.745Z,86.00
2023-06-26T04:13:39.718Z,85.60
2023-06-26T04:14:40.076Z,85.90
2023-06-26T04:15:39.868Z,86.41
2023-06-26T04:16:39.648Z,86.81
2023-06-26T04:17:39.671Z,86.87
2023-06-26T04:18:39.604Z,87.01
2023-06-26T04:19:39.581Z,86.46
2023-06-26T04:20:39.782Z,86.46
2023-06-26T04:21:39.535Z,86.77
2023-06-26T04:22:39.515Z,87.07
2023-06-26T04:23:39.496Z,87.27
2023-06-26T04:24:39.473Z,87.57
2023-06-26T04:25:39.558Z,87.07
2023-06-26T04:26:39.422Z,88.38
2023-06-26T04:27:41.130Z,88.43
2023-06-26T04:28:39.378Z,87.83
2023-06-26T04:29:39.358Z,87.43
2023-06-26T04:30:39.525Z,87.73
2023-06-26T04:31:39.414Z,87.73
2023-06-26T04:32:39.359Z,87.93
2023-06-26T04:33:42.600Z,87.83
2023-06-26T04:34:39.243Z,87.43
2023-06-26T04:35:39.221Z,86.63
2023-06-26T04:36:39.218Z,87.33
2023-06-26T04:37:39.180Z,86.83
2023-06-26T04:38:39.149Z,86.43
2023-06-26T04:39:39.133Z,87.02
2023-06-26T04:40:39.346Z,86.88
2023-06-26T04:41:39.084Z,86.38
2023-06-26T04:42:39.097Z,86.68
2023-06-26T04:43:39.038Z,87.08
2023-06-26T04:44:39.013Z,86.48
2023-06-26T04:45:39.031Z,86.79
2023-06-26T04:46:38.991Z,86.48
2023-06-26T04:47:39.001Z,85.68
2023-06-26T04:48:38.925Z,85.48
2023-06-26T04:49:39.503Z,85.68
2023-06-26T04:50:39.185Z,85.58
2023-06-26T04:51:38.857Z,85.33
2023-06-26T04:52:38.834Z,85.94
2023-06-26T04:53:38.817Z,85.24
2023-06-26T04:54:38.790Z,85.53
2023-06-26T04:55:39.982Z,85.44
2023-06-26T04:56:38.746Z,84.33
2023-06-26T04:57:38.728Z,84.63
2023-06-26T04:58:38.704Z,85.33
2023-06-26T04:59:38.683Z,85.14
2023-06-26T05:00:38.842Z,85.44
2023-06-26T05:01:39.388Z,84.74
2023-06-26T05:02:38.721Z,84.83
2023-06-26T05:03:38.760Z,84.09
2023-06-26T05:04:38.574Z,84.19
2023-06-26T05:05:38.545Z,83.69
2023-06-26T05:06:38.537Z,83.49
2023-06-26T05:07:38.504Z,83.59
2023-06-26T05:08:38.477Z,83.39
2023-06-26T05:09:38.455Z,83.29
2023-06-26T05:10:38.630Z,83.29
2023-06-26T05:11:38.416Z,83.09
2023-06-26T05:12:38.396Z,81.34
2023-06-26T05:13:38.367Z,82.24
2023-06-26T05:14:38.343Z,82.04
2023-06-26T05:15:38.320Z,82.24
2023-06-26T05:16:38.299Z,79.99
2023-06-26T05:17:38.332Z,81.24
2023-06-26T05:18:38.290Z,80.90
2023-06-26T05:19:38.241Z,81.20
2023-06-26T05:20:38.565Z,80.10
2023-06-26T05:21:38.191Z,79.29
2023-06-26T05:22:38.164Z,79.29
2023-06-26T05:23:38.143Z,80.16
2023-06-26T05:24:38.125Z,81.16
2023-06-26T05:25:38.106Z,80.06
2023-06-26T05:26:38.079Z,80.06
2023-06-26T05:27:38.059Z,81.67
2023-06-26T05:28:38.034Z,81.26
2023-06-26T05:29:39.154Z,80.16
2023-06-26T05:30:38.246Z,79.36
2023-06-26T05:31:38.009Z,78.96
2023-06-26T05:32:37.990Z,79.32
2023-06-26T05:33:37.936Z,79.22
2023-06-26T05:34:37.926Z,78.92
2023-06-26T05:35:37.910Z,79.02
2023-06-26T05:36:37.858Z,78.52
2023-06-26T05:37:37.837Z,79.12
2023-06-26T05:38:37.821Z,79.72
2023-06-26T05:39:37.795Z,80.12
2023-06-26T05:40:38.180Z,79.28
2023-06-26T05:41:37.751Z,79.38
2023-06-26T05:42:37.746Z,78.48
2023-06-26T05:43:37.713Z,78.98
2023-06-26T05:44:37.692Z,79.58
2023-06-26T05:45:37.680Z,79.08
2023-06-26T05:46:37.644Z,77.67
2023-06-26T05:47:37.725Z,77.58
2023-06-26T05:48:37.708Z,78.18
2023-06-26T05:49:37.585Z,78.04
2023-06-26T05:50:37.991Z,77.94
2023-06-26T05:51:37.534Z,77.74
2023-06-26T05:52:37.513Z,78.50
2023-06-26T05:53:37.492Z,77.44
2023-06-26T05:54:37.468Z,77.40
2023-06-26T05:55:37.451Z,77.30
2023-06-26T05:56:37.425Z,77.50
2023-06-26T05:57:37.409Z,78.20
2023-06-26T05:58:37.390Z,77.30
2023-06-26T05:59:37.441Z,77.80
2023-06-26T06:00:37.752Z,78.17
2023-06-26T06:01:37.400Z,78.67
2023-06-26T06:02:37.347Z,77.86
2023-06-26T06:03:37.455Z,77.67
2023-06-26T06:04:37.260Z,77.47
2023-06-26T06:05:37.238Z,77.86
2023-06-26T06:06:37.249Z,78.36
2023-06-26T06:07:37.278Z,78.06
2023-06-26T06:08:37.180Z,77.36
2023-06-26T06:09:37.146Z,77.93
2023-06-26T06:10:37.478Z,78.43
2023-06-26T06:11:37.103Z,78.03
2023-06-26T06:12:37.082Z,77.23
2023-06-26T06:13:37.066Z,77.73
2023-06-26T06:14:37.047Z,77.33
2023-06-26T06:15:37.039Z,77.63
2023-06-26T06:16:36.996Z,77.63
2023-06-26T06:17:37.061Z,77.29
2023-06-26T06:18:36.954Z,76.39
2023-06-26T06:19:36.937Z,76.89
2023-06-26T06:20:37.562Z,77.09
2023-06-26T06:21:36.895Z,76.29
2023-06-26T06:22:36.917Z,77.29
2023-06-26T06:23:36.848Z,76.65
2023-06-26T06:24:36.823Z,76.26
2023-06-26T06:25:36.826Z,75.96
2023-06-26T06:26:36.779Z,76.06
2023-06-26T06:27:36.766Z,75.46
2023-06-26T06:28:36.750Z,75.05
2023-06-26T06:29:36.722Z,75.52
2023-06-26T06:30:45.100Z,75.92
2023-06-26T06:31:36.723Z,75.72
2023-06-26T06:32:36.698Z,72.02
2023-06-26T06:33:36.642Z,71.29
2023-06-26T06:34:36.620Z,72.59
2023-06-26T06:35:36.606Z,72.09
2023-06-26T06:36:36.579Z,71.49
2023-06-26T06:37:36.553Z,70.59
2023-06-26T06:38:36.576Z,69.36
2023-06-26T06:39:36.533Z,69.79
2023-06-26T06:40:36.560Z,70.59
2023-06-26T06:41:37.459Z,69.86
2023-06-26T06:42:36.447Z,70.26
2023-06-26T06:43:36.427Z,69.66
2023-06-26T06:44:36.438Z,70.26
2023-06-26T06:45:36.388Z,70.16
2023-06-26T06:46:36.368Z,69.23
2023-06-26T06:47:36.409Z,68.56
2023-06-26T06:48:36.321Z,68.46
2023-06-26T06:49:36.304Z,68.13
2023-06-26T06:50:36.501Z,67.53
2023-06-26T06:51:36.271Z,67.33
2023-06-26T06:52:36.241Z,67.43
2023-06-26T06:53:36.220Z,68.23
2023-06-26T06:54:36.435Z,68.33
2023-06-26T06:55:36.192Z,68.63
2023-06-26T06:56:36.156Z,69.20
2023-06-26T06:57:36.137Z,68.79
2023-06-26T06:58:36.113Z,69.59
2023-06-26T06:59:36.094Z,68.26
2023-06-26T07:00:36.211Z,66.10
2023-06-26T07:01:36.120Z,65.37
2023-06-26T07:02:36.060Z,66.70
2023-06-26T07:03:36.080Z,67.47
2023-06-26T07:04:35.990Z,66.97
2023-06-26T07:05:35.972Z,69.16
2023-06-26T07:06:35.962Z,68.76
2023-06-26T07:07:35.950Z,65.97
2023-06-26T07:08:35.908Z,65.97
2023-06-26T07:09:35.888Z,65.87
2023-06-26T07:10:35.929Z,65.27
2023-06-26T07:11:35.858Z,66.04
2023-06-26T07:12:35.824Z,64.25
2023-06-26T07:13:35.808Z,65.14
2023-06-26T07:14:35.784Z,65.51
2023-06-26T07:15:35.770Z,65.01
2023-06-26T07:16:35.824Z,65.34
2023-06-26T07:17:35.806Z,64.61
2023-06-26T07:18:35.728Z,65.01
2023-06-26T07:19:35.690Z,66.57
2023-06-26T07:20:35.699Z,64.39
2023-06-26T07:21:35.649Z,64.58
2023-06-26T07:22:35.622Z,62.59
2023-06-26T07:23:35.610Z,60.11
2023-06-26T07:24:35.595Z,58.28
2023-06-26T07:25:35.562Z,58.88
2023-06-26T07:26:44.328Z,60.05
2023-06-26T07:27:35.533Z,58.78
2023-06-26T07:28:35.504Z,59.05
2023-06-26T07:29:35.481Z,57.96
2023-06-26T07:30:35.481Z,58.26
2023-06-26T07:31:35.551Z,56.37
2023-06-26T07:32:35.491Z,56.77
2023-06-26T07:33:35.401Z,57.26
2023-06-26T07:34:35.379Z,57.66
2023-06-26T07:35:35.376Z,57.96
2023-06-26T07:36:35.353Z,58.16
2023-06-26T07:37:35.332Z,56.40
2023-06-26T07:38:35.310Z,59.95
2023-06-26T07:39:35.292Z,57.49
2023-06-26T07:40:35.271Z,56.17
2023-06-26T07:41:35.250Z,56.37
2023-06-26T07:42:35.244Z,56.47
2023-06-26T07:43:35.218Z,56.07
2023-06-26T07:44:35.194Z,55.94
2023-06-26T07:45:35.178Z,56.24
2023-06-26T07:46:35.163Z,55.65
2023-06-26T07:47:35.155Z,55.94
2023-06-26T07:48:35.108Z,55.94
2023-06-26T07:49:35.088Z,55.52
2023-06-26T07:50:35.071Z,56.14
2023-06-26T07:51:35.046Z,55.85
2023-06-26T07:52:35.058Z,56.34
2023-06-26T07:53:35.006Z,58.03
2023-06-26T07:54:35.012Z,58.23
2023-06-26T07:55:34.974Z,58.60
2023-06-26T07:56:34.947Z,60.58
2023-06-26T07:57:34.936Z,58.60
2023-06-26T07:58:35.482Z,58.70
2023-06-26T07:59:34.897Z,59.79
2023-06-26T08:00:34.875Z,57.90
2023-06-26T08:01:34.849Z,57.90
2023-06-26T08:02:34.903Z,57.41
2023-06-26T08:03:36.186Z,57.31
2023-06-26T08:04:34.916Z,57.87
2023-06-26T08:05:34.881Z,58.77
2023-06-26T08:06:34.759Z,58.67
2023-06-26T08:07:34.733Z,55.59
2023-06-26T08:08:34.713Z,56.38
2023-06-26T08:09:34.727Z,57.68
2023-06-26T08:10:34.674Z,55.76
2023-06-26T08:11:34.666Z,55.07
2023-06-26T08:12:34.638Z,55.27
2023-06-26T08:13:34.614Z,55.47
2023-06-26T08:14:34.756Z,56.23
2023-06-26T08:15:34.576Z,54.57
2023-06-26T08:16:34.555Z,55.17
2023-06-26T08:17:34.560Z,55.79
2023-06-26T08:18:34.515Z,55.66
2023-06-26T08:19:34.497Z,55.66
2023-06-26T08:20:34.478Z,56.06
2023-06-26T08:21:34.457Z,54.77
2023-06-26T08:22:34.443Z,55.57
2023-06-26T08:23:34.417Z,55.17
2023-06-26T08:24:34.403Z,56.26
2023-06-26T08:25:34.378Z,54.68
2023-06-26T08:26:34.360Z,55.54
2023-06-26T08:27:34.344Z,55.54
2023-06-26T08:28:34.320Z,55.04
2023-06-26T08:29:34.306Z,54.75
2023-06-26T08:30:34.542Z,55.44
2023-06-26T08:31:34.359Z,55.74
2023-06-26T08:32:34.268Z,54.94
2023-06-26T08:33:34.233Z,54.13
2023-06-26T08:34:34.209Z,54.94
2023-06-26T08:35:34.197Z,57.50
2023-06-26T08:36:34.168Z,56.01
2023-06-26T08:37:34.158Z,57.97
2023-06-26T08:38:34.130Z,56.38
2023-06-26T08:39:34.128Z,55.02
2023-06-26T08:40:34.112Z,56.04
2023-06-26T08:41:34.081Z,57.69
2023-06-26T08:42:34.074Z,58.69
2023-06-26T08:43:34.037Z,57.99
2023-06-26T08:44:34.018Z,56.68
2023-06-26T08:45:33.999Z,55.32
2023-06-26T08:46:34.058Z,55.58
2023-06-26T08:47:34.001Z,56.57
2023-06-26T08:48:33.942Z,57.86
2023-06-26T08:49:33.929Z,58.16
2023-06-26T08:50:33.923Z,58.75
2023-06-26T08:51:33.888Z,57.27
2023-06-26T08:52:33.892Z,57.14
2023-06-26T08:53:33.858Z,55.96
2023-06-26T08:54:33.834Z,55.09
2023-06-26T08:55:33.814Z,54.39
2023-06-26T08:56:33.807Z,54.30
2023-06-26T08:57:33.786Z,55.02
2023-06-26T08:58:33.765Z,55.51
2023-06-26T08:59:33.738Z,54.42
2023-06-26T09:00:33.724Z,54.13
2023-06-26T09:01:33.756Z,54.62
2023-06-26T09:02:34.014Z,53.92
2023-06-26T09:03:33.739Z,54.10
2023-06-26T09:04:33.649Z,53.13
2023-06-26T09:05:33.659Z,53.01
2023-06-26T09:06:33.615Z,54.00
2023-06-26T09:07:33.680Z,53.60
2023-06-26T09:08:33.575Z,52.91
2023-06-26T09:09:33.555Z,53.01
2023-06-26T09:10:33.545Z,53.70
2023-06-26T09:11:33.520Z,52.91
2023-06-26T09:12:33.509Z,52.59
2023-06-26T09:13:33.487Z,52.98
2023-06-26T09:14:33.468Z,52.88
2023-06-26T09:15:33.480Z,52.09
2023-06-26T09:16:33.434Z,52.56
2023-06-26T09:17:33.435Z,51.57
2023-06-26T09:18:33.435Z,51.75
2023-06-26T09:19:35.212Z,52.14
2023-06-26T09:20:33.356Z,51.15
2023-06-26T09:21:33.338Z,50.76
2023-06-26T09:22:33.318Z,51.45
2023-06-26T09:23:33.311Z,52.81
2023-06-26T09:24:33.281Z,52.81
2023-06-26T09:25:33.262Z,52.44
2023-06-26T09:26:33.248Z,53.70
2023-06-26T09:27:33.226Z,53.63
2023-06-26T09:28:33.208Z,53.25
2023-06-26T09:29:33.192Z,52.96
2023-06-26T09:30:33.172Z,52.56
2023-06-26T09:31:41.454Z,52.83
2023-06-26T09:32:33.243Z,52.34
2023-06-26T09:33:33.119Z,52.54
2023-06-26T09:34:33.281Z,52.34
2023-06-26T09:35:33.081Z,51.05
2023-06-26T09:36:33.069Z,51.52
2023-06-26T09:37:33.051Z,52.24
2023-06-26T09:38:33.048Z,51.75
2023-06-26T09:39:33.013Z,52.34
2023-06-26T09:40:33.044Z,53.23
2023-06-26T09:41:32.977Z,54.39
2023-06-26T09:42:32.958Z,52.44
2023-06-26T09:43:33.145Z,53.80
2023-06-26T09:44:32.924Z,53.50
2023-06-26T09:45:32.948Z,52.48
2023-06-26T09:46:32.989Z,54.06
2023-06-26T09:47:32.928Z,51.59
2023-06-26T09:48:32.850Z,51.32
2023-06-26T09:49:32.833Z,53.70
2023-06-26T09:50:32.936Z,53.47
2023-06-26T09:51:32.855Z,52.88
2023-06-26T09:52:32.782Z,52.19
2023-06-26T09:53:32.759Z,51.20
2023-06-26T09:54:32.763Z,52.09
2023-06-26T09:55:32.722Z,50.81
2023-06-26T09:56:32.713Z,50.90
2023-06-26T09:57:32.687Z,51.99
2023-06-26T09:58:32.666Z,53.75
2023-06-26T09:59:32.652Z,51.97
2023-06-26T10:00:32.646Z,54.14
2023-06-26T10:01:32.823Z,51.67
2023-06-26T10:02:32.680Z,50.48
2023-06-26T10:03:32.670Z,49.82
2023-06-26T10:04:32.702Z,51.37
2023-06-26T10:05:32.549Z,51.59
2023-06-26T10:06:32.641Z,49.22
2023-06-26T10:07:32.647Z,48.24
2023-06-26T10:08:32.531Z,49.22
2023-06-26T10:09:32.489Z,48.73
2023-06-26T10:10:32.501Z,48.41
2023-06-26T10:11:32.447Z,50.09
2023-06-26T10:12:32.520Z,49.10
2023-06-26T10:13:32.402Z,48.80
2023-06-26T10:14:32.385Z,48.90
2023-06-26T10:15:32.411Z,47.42
2023-06-26T10:16:32.388Z,48.98
2023-06-26T10:17:32.408Z,47.50
2023-06-26T10:18:32.340Z,47.20
2023-06-26T10:19:32.298Z,48.49
2023-06-26T10:20:32.282Z,48.98
2023-06-26T10:21:32.379Z,46.69
2023-06-26T10:22:32.428Z,47.18
2023-06-26T10:23:32.227Z,46.96
2023-06-26T10:24:32.215Z,47.77
2023-06-26T10:25:32.195Z,48.96
2023-06-26T10:26:32.194Z,48.46
2023-06-26T10:27:32.157Z,48.96
2023-06-26T10:28:32.147Z,48.74
2023-06-26T10:29:32.124Z,47.65
2023-06-26T10:30:32.126Z,47.94
2023-06-26T10:31:32.317Z,46.17
2023-06-26T10:32:32.089Z,47.55
2023-06-26T10:33:32.058Z,48.93
2023-06-26T10:34:32.044Z,51.18
2023-06-26T10:35:32.023Z,50.78
2023-06-26T10:36:32.004Z,48.61
2023-06-26T10:37:31.985Z,46.64
2023-06-26T10:38:32.089Z,47.25
2023-06-26T10:39:31.960Z,46.04
2023-06-26T10:40:31.934Z,46.64
2023-06-26T10:41:31.919Z,47.13
2023-06-26T10:42:31.899Z,48.24
2023-06-26T10:43:31.885Z,47.35
2023-06-26T10:44:31.868Z,47.55
2023-06-26T10:45:31.855Z,47.63
2023-06-26T10:46:31.837Z,46.34
2023-06-26T10:47:31.848Z,46.04
2023-06-26T10:48:31.808Z,48.91
2023-06-26T10:49:31.782Z,47.33
2023-06-26T10:50:31.851Z,48.22
2023-06-26T10:51:31.747Z,48.91
2023-06-26T10:52:31.730Z,53.22
2023-06-26T10:53:31.715Z,48.81
2023-06-26T10:54:31.771Z,47.43
2023-06-26T10:55:31.677Z,47.53
2023-06-26T10:56:31.664Z,46.42
2023-06-26T10:57:31.648Z,47.70
2023-06-26T10:58:31.630Z,46.52
2023-06-26T10:59:31.616Z,45.83
2023-06-26T11:00:31.875Z,45.73
2023-06-26T11:01:31.719Z,46.32
2023-06-26T11:02:31.584Z,46.42
2023-06-26T11:03:31.548Z,43.86
2023-06-26T11:04:31.611Z,45.53
2023-06-26T11:05:31.513Z,45.39
2023-06-26T11:06:31.693Z,43.82
2023-06-26T11:07:31.587Z,44.09
2023-06-26T11:08:31.469Z,44.40
2023-06-26T11:09:31.450Z,45.68
2023-06-26T11:10:31.453Z,44.38
2023-06-26T11:11:31.417Z,44.33
2023-06-26T11:12:31.401Z,45.34
2023-06-26T11:13:31.392Z,44.45
2023-06-26T11:14:31.388Z,45.63
2023-06-26T11:15:31.361Z,45.83
2023-06-26T11:16:31.352Z,46.22
2023-06-26T11:17:31.342Z,47.09
2023-06-26T11:18:31.307Z,47.56
2023-06-26T11:19:31.300Z,44.70
2023-06-26T11:20:31.284Z,45.86
2023-06-26T11:21:31.260Z,44.31
2023-06-26T11:22:31.243Z,46.25
2023-06-26T11:23:31.231Z,45.76
2023-06-26T11:24:31.218Z,46.06
2023-06-26T11:25:31.197Z,45.45
2023-06-26T11:26:31.212Z,45.94
2023-06-26T11:27:31.166Z,44.26
2023-06-26T11:28:31.162Z,45.56
2023-06-26T11:29:31.136Z,45.76
2023-06-26T11:30:31.153Z,45.47
2023-06-26T11:31:31.277Z,46.37
2023-06-26T11:32:31.139Z,46.45
2023-06-26T11:33:31.076Z,46.55
2023-06-26T11:34:31.059Z,45.74
2023-06-26T11:35:31.075Z,45.64
2023-06-26T11:36:31.034Z,46.06
2023-06-26T11:37:31.024Z,47.63
2023-06-26T11:38:31.004Z,49.11
2023-06-26T11:39:30.981Z,48.32
2023-06-26T11:40:30.964Z,48.74
2023-06-26T11:41:30.971Z,49.45
2023-06-26T11:42:30.961Z,50.76
2023-06-26T11:43:30.924Z,51.15
2023-06-26T11:44:30.904Z,50.07
2023-06-26T11:45:30.897Z,51.67
2023-06-26T11:46:30.882Z,51.25
2023-06-26T11:47:30.971Z,52.31
2023-06-26T11:48:30.951Z,51.10
2023-06-26T11:49:30.856Z,50.02
2023-06-26T11:50:30.813Z,50.21
2023-06-26T11:51:30.796Z,50.93
2023-06-26T11:52:30.788Z,50.24
2023-06-26T11:53:30.762Z,50.34
2023-06-26T11:54:30.748Z,50.54
2023-06-26T11:55:30.730Z,50.76
2023-06-26T11:56:30.732Z,51.12
2023-06-26T11:57:30.697Z,51.50
2023-06-26T11:58:30.739Z,50.81
2023-06-26T11:59:30.667Z,50.42
2023-06-26T12:00:30.657Z,50.93
2023-06-26T12:01:30.635Z,51.15
2023-06-26T12:02:30.642Z,51.28
2023-06-26T12:03:30.867Z,50.78
2023-06-26T12:04:30.760Z,51.10
2023-06-26T12:05:30.582Z,52.78
2023-06-26T12:06:30.563Z,53.99
2023-06-26T12:07:30.641Z,54.75
2023-06-26T12:08:30.525Z,54.65
2023-06-26T12:09:30.510Z,53.96
2023-06-26T12:10:30.496Z,53.77
2023-06-26T12:11:30.855Z,54.23
2023-06-26T12:12:30.465Z,53.81
2023-06-26T12:13:30.484Z,53.84
2023-06-26T12:14:30.460Z,54.72
2023-06-26T12:15:30.432Z,53.44
2023-06-26T12:16:30.422Z,53.08
2023-06-26T12:17:30.428Z,53.86
2023-06-26T12:18:30.385Z,53.89
2023-06-26T12:19:30.353Z,53.59
2023-06-26T12:20:30.337Z,53.50
2023-06-26T12:21:30.320Z,53.89
2023-06-26T12:22:30.302Z,54.16
2023-06-26T12:23:31.400Z,53.50
2023-06-26T12:24:30.273Z,53.50
2023-06-26T12:25:30.269Z,54.09
2023-06-26T12:26:30.241Z,53.00
2023-06-26T12:27:30.227Z,53.67
2023-06-26T12:28:30.206Z,52.41
2023-06-26T12:29:30.194Z,53.47
2023-06-26T12:30:30.198Z,52.28
2023-06-26T12:31:30.207Z,52.39
2023-06-26T12:32:30.171Z,52.68
2023-06-26T12:33:30.128Z,52.46
2023-06-26T12:34:30.112Z,51.57
2023-06-26T12:35:30.098Z,52.04
2023-06-26T12:36:30.077Z,52.56
2023-06-26T12:37:30.092Z,52.06
2023-06-26T12:38:30.048Z,52.06
2023-06-26T12:39:30.070Z,51.77
2023-06-26T12:40:30.016Z,51.47
2023-06-26T12:41:30.035Z,51.18
2023-06-26T12:42:29.981Z,51.18
2023-06-26T12:43:29.969Z,51.28
2023-06-26T12:44:29.971Z,52.11
2023-06-26T12:45:32.787Z,52.21
2023-06-26T12:46:29.993Z,52.61
2023-06-26T12:47:29.951Z,53.89
2023-06-26T12:48:29.891Z,50.83
2023-06-26T12:49:32.005Z,51.92
2023-06-26T12:50:29.873Z,51.72
2023-06-26T12:51:29.852Z,51.99
2023-06-26T12:52:29.826Z,51.40